Terminal Aerodrome Forecast
Issued by NWS

Home | Current Version | Previous Version | Text Only | Print | Product List | Glossary On
Versions: 1 2 3 4 5 6 7 8 9 10 11 12 13 14 15 16 17 18 19 20 21 22 23 24 25 26 27 28 29
578
FTUS46 KSGX 222141 AAB
TAFSAN
TAF AMD
KSAN 222141Z 2222/2324 29012KT P6SM VCSH SCT015 BKN025
      TEMPO 2300/2303 BKN015
     FM230300 28012KT P6SM -RA VCTS SCT006 BKN015CB OVC030
     FM230700 28012G18KT P6SM VCSH SCT010 BKN020 OVC030
     FM231600 28010KT P6SM SCT012 SCT035
     FM231900 29012G18KT P6SM FEW015 SCT040=

USA.gov is the U.S. government's official web portal to all federal, state and local government web resources and services.